Flight Track Log - Related Links

Times and Time Zones

All times are in EDT time to prevent confusion due to time zone crossing. See the SWA1542 flight status page for this flight to view local times or setup timezone preferences in your user account.

Time Position Orientation Groundspeed Altitude Reporting Facility
EDT Latitude Longitude Course Direction KTS MPH feet Rate Location/Type
Thu 06:55:37 PM 39.1750 -76.7780 285° West 258 297 5,500  Level FlightAware ADS-B
Thu 06:56:07 PM 39.1860 -76.8230 288° West 269 310 6,800 2,520 Climbing FlightAware ADS-B
Thu 06:56:27 PM 39.1930 -76.8490 289° West 276 318 7,600 2,538 Climbing FlightAware ADS-B
Thu 06:56:59 PM 39.2040 -76.8990 286° West 281 323 9,000 2,535 Climbing FlightAware ADS-B
Thu 06:57:38 PM 39.2140 -76.9600 282° West 284 327 10,600 1,769 Climbing FlightAware ADS-B
Thu 06:58:17 PM 39.2140 -77.0300 270° West 330 380 11,300 1,164 Climbing FlightAware ADS-B
Thu 06:58:45 PM 39.2140 -77.0880 270° West 357 411 11,900 1,789 Climbing FlightAware ADS-B
Thu 06:59:14 PM 39.2050 -77.1470 259° West 358 412 13,000 2,143 Climbing FlightAware ADS-B
Thu 06:59:27 PM 39.1920 -77.1710 235° Southwest 358 412 13,400 2,339 Climbing FlightAware ADS-B
Thu 07:00:13 PM 39.1270 -77.2290 215° Southwest 368 423 15,300 2,341 Climbing FlightAware ADS-B
Thu 07:00:49 PM 39.0860 -77.2860 227° Southwest 377 434 16,600 2,074 Climbing FlightAware ADS-B
Thu 07:01:34 PM 39.0600 -77.3880 252° West 392 451 18,100 1,962 Climbing FlightAware ADS-B
Thu 07:02:33 PM 39.0280 -77.5200 253° West 404 465 20,000 2,020 Climbing FlightAware ADS-B
Thu 07:03:12 PM 39.0050 -77.6090 252° West 403 464 21,400 1,765 Climbing FlightAware ADS-B
Thu 07:03:58 PM 38.9800 -77.7080 252° West 411 473 22,500 1,429 Climbing FlightAware ADS-B
Thu 07:04:36 PM 38.9570 -77.8010 252° West 421 484 23,400 1,308 Climbing FlightAware ADS-B
Thu 07:05:16 PM 38.9340 -77.8930 252° West 428 493 24,200 1,537 Climbing FlightAware ADS-B
Thu 07:05:58 PM 38.9020 -78.0170 252° West 434 499 25,500 1,683 Climbing FlightAware ADS-B
Thu 07:06:38 PM 38.8780 -78.1150 253° West 434 499 26,500 1,350 Climbing FlightAware ADS-B
Thu 07:07:18 PM 38.8570 -78.2160 255° West 442 509 27,300 1,143 Climbing FlightAware ADS-B
Thu 07:08:02 PM 38.8530 -78.3330 268° West 456 525 28,100 1,071 Climbing FlightAware ADS-B
Thu 07:08:42 PM 38.8520 -78.4390 269° West 460 529 28,800 1,047 Climbing FlightAware ADS-B
Thu 07:09:28 PM 38.8500 -78.5570 269° West 463 533 29,600 1,200 Climbing FlightAware ADS-B
Thu 07:10:07 PM 38.8490 -78.6660 269° West 463 533 30,500 1,297 Climbing FlightAware ADS-B
Thu 07:10:42 PM 38.8470 -78.7700 269° West 461 531 31,200 1,247 Climbing FlightAware ADS-B
Thu 07:11:24 PM 38.8460 -78.8850 269° West 458 527 32,100 1,317 Climbing FlightAware ADS-B
Thu 07:12:04 PM 38.8440 -78.9890 269° West 452 520 33,000 1,263 Climbing FlightAware ADS-B
Thu 07:12:40 PM 38.8420 -79.0860 269° West 448 516 33,700 1,188 Climbing FlightAware ADS-B
Thu 07:13:40 PM 38.8400 -79.2450 269° West 439 505 34,900 1,237 Climbing FlightAware ADS-B
Thu 07:14:17 PM 38.8380 -79.3350 268° West 431 496 35,700 815 Climbing FlightAware ADS-B
Thu 07:15:01 PM 38.8350 -79.4500 268° West 425 489 36,000 209 Climbing FlightAware ADS-B
Thu 07:15:43 PM 38.8290 -79.5540 266° West 423 487 36,000  Level FlightAware ADS-B
Thu 07:16:25 PM 38.8110 -79.6530 257° West 425 489 36,000  Level FlightAware ADS-B
Thu 07:17:10 PM 38.7920 -79.7620 257° West 426 490 36,000  Level FlightAware ADS-B
Thu 07:17:50 PM 38.7730 -79.8680 257° West 424 488 36,000  Level FlightAware ADS-B
Thu 07:18:34 PM 38.7550 -79.9720 258° West 422 486 36,000  Level FlightAware ADS-B
Thu 07:19:14 PM 38.7390 -80.0710 258° West 424 488 36,000  Level FlightAware ADS-B
Thu 07:19:58 PM 38.7220 -80.1800 259° West 423 487 36,000  Level FlightAware ADS-B
Thu 07:20:35 PM 38.7070 -80.2720 258° West 422 486 36,000  Level FlightAware ADS-B
Thu 07:21:17 PM 38.6900 -80.3720 258° West 417 480 36,000  Level FlightAware ADS-B
Thu 07:22:01 PM 38.6590 -80.4730 249° West 415 478 36,000  Level FlightAware ADS-B
Thu 07:22:46 PM 38.6270 -80.5750 248° West 417 480 36,000  Level FlightAware ADS-B
Thu 07:23:20 PM 38.6040 -80.6520 249° West 420 483 36,000  Level FlightAware ADS-B
Thu 07:24:06 PM 38.5710 -80.7590 249° West 420 483 36,000  Level FlightAware ADS-B
Thu 07:24:43 PM 38.5440 -80.8460 248° West 419 482 36,000  Level FlightAware ADS-B
Thu 07:25:27 PM 38.5140 -80.9460 249° West 418 481 36,000  Level FlightAware ADS-B
Thu 07:26:06 PM 38.4880 -81.0320 249° West 418 481 36,000  Level FlightAware ADS-B
Thu 07:26:43 PM 38.4620 -81.1210 250° West 416 479 36,000  Level FlightAware ADS-B
Thu 07:27:23 PM 38.4350 -81.2140 250° West 414 476 36,000  Level FlightAware ADS-B
Thu 07:28:07 PM 38.4060 -81.3140 250° West 412 474 36,000  Level FlightAware ADS-B
Thu 07:28:47 PM 38.3800 -81.4050 250° West 412 474 36,000  Level FlightAware ADS-B
Thu 07:29:31 PM 38.3520 -81.5040 250° West 411 473 36,000  Level FlightAware ADS-B
Thu 07:30:07 PM 38.3410 -81.5920 261° West 418 481 36,000  Level FlightAware ADS-B
Thu 07:30:54 PM 38.3350 -81.7080 266° West 417 480 36,000  Level FlightAware ADS-B
Thu 07:31:28 PM 38.3310 -81.7890 266° West 417 480 36,000  Level FlightAware ADS-B
Thu 07:32:12 PM 38.3250 -81.8980 266° West 417 480 36,000  Level FlightAware ADS-B
Thu 07:32:52 PM 38.3210 -81.9940 267° West 421 484 36,000  Level FlightAware ADS-B
Thu 07:33:28 PM 38.3210 -82.0830 270° West 422 486 36,000  Level FlightAware ADS-B
Thu 07:34:08 PM 38.3240 -82.1840 272° West 428 493 36,000  Level FlightAware ADS-B
Thu 07:34:53 PM 38.3360 -82.2950 278° West 428 493 36,000  Level FlightAware ADS-B
Thu 07:35:33 PM 38.3460 -82.3970 277° West 431 496 36,000  Level FlightAware ADS-B
Thu 07:36:18 PM 38.3560 -82.5060 277° West 434 499 36,000  Level FlightAware ADS-B
Thu 07:36:58 PM 38.3670 -82.6120 278° West 435 501 36,000  Level FlightAware ADS-B
Thu 07:37:42 PM 38.3780 -82.7240 277° West 436 502 36,000  Level FlightAware ADS-B
Thu 07:38:18 PM 38.3860 -82.8130 277° West 437 503 36,000  Level FlightAware ADS-B
Thu 07:38:57 PM 38.3960 -82.9150 277° West 438 504 36,000  Level FlightAware ADS-B
Thu 07:39:37 PM 38.4070 -83.0190 278° West 443 510 36,000  Level FlightAware ADS-B
Thu 07:40:16 PM 38.4430 -83.1110 297° West 460 529 36,000  Level FlightAware ADS-B
Thu 07:40:56 PM 38.4870 -83.2030 301° West 459 528 36,000  Level FlightAware ADS-B
Thu 07:41:37 PM 38.5310 -83.2940 302° West 458 527 36,000  Level FlightAware ADS-B
Thu 07:42:27 PM 38.5810 -83.4000 301° West 458 527 36,000  Level FlightAware ADS-B
Thu 07:43:18 PM 38.6450 -83.5280 303° West 460 529 36,000  Level FlightAware ADS-B
Thu 07:43:58 PM 38.6880 -83.6240 300° West 448 516 36,000  Level FlightAware ADS-B
Thu 07:44:38 PM 38.7010 -83.7260 279° West 432 497 36,000  Level FlightAware ADS-B
Thu 07:45:18 PM 38.7060 -83.8290 274° West 434 499 36,000  Level FlightAware ADS-B
Thu 07:45:56 PM 38.7110 -83.9260 274° West 436 502 36,000  Level FlightAware ADS-B
Thu 07:46:38 PM 38.7170 -84.0310 274° West 437 503 36,000  Level FlightAware ADS-B
Thu 07:47:24 PM 38.7210 -84.1330 273° West 437 503 36,000  Level FlightAware ADS-B
Thu 07:48:12 PM 38.7250 -84.2390 273° West 437 503 36,000  Level FlightAware ADS-B
Thu 07:48:48 PM 38.7290 -84.3180 274° West 437 503 36,000  Level FlightAware ADS-B
Thu 07:49:32 PM 38.7380 -84.4680 274° West 441 507 36,000  Level FlightAware ADS-B
Thu 07:50:31 PM 38.7460 -84.6370 274° West 443 510 36,000  Level FlightAware ADS-B
Thu 07:51:10 PM 38.7500 -84.7410 273° West 443 510 36,000  Level FlightAware ADS-B
Thu 07:51:54 PM 38.7550 -84.8580 273° West 444 511 36,000  Level FlightAware ADS-B
Thu 07:52:30 PM 38.7590 -84.9520 273° West 442 509 36,000  Level FlightAware ADS-B
Thu 07:53:10 PM 38.7630 -85.0540 273° West 440 506 36,000  Level FlightAware ADS-B
Thu 07:53:54 PM 38.7680 -85.1700 273° West 438 504 36,000  Level FlightAware ADS-B
Thu 07:54:26 PM 38.7710 -85.2540 273° West 437 503 36,000  Level FlightAware ADS-B
Thu 07:55:10 PM 38.7760 -85.3610 273° West 436 502 36,000  Level FlightAware ADS-B
Thu 07:55:52 PM 38.7800 -85.4730 273° West 435 501 36,000  Level FlightAware ADS-B
Thu 07:56:36 PM 38.7840 -85.5840 273° West 433 498 36,000  Level FlightAware ADS-B
Thu 07:57:16 PM 38.7880 -85.6880 273° West 432 497 36,000  Level FlightAware ADS-B
Thu 07:57:56 PM 38.7910 -85.7910 272° West 431 496 36,000  Level FlightAware ADS-B
Thu 07:58:40 PM 38.7950 -85.9040 273° West 430 495 36,000  Level FlightAware ADS-B
Thu 07:59:18 PM 38.7980 -85.9990 272° West 430 495 36,000  Level FlightAware ADS-B
Thu 08:00:11 PM 38.8030 -86.1330 273° West 431 496 36,000  Level FlightAware ADS-B
Thu 08:00:51 PM 38.8060 -86.2360 272° West 433 498 36,000  Level FlightAware ADS-B
Thu 08:01:27 PM 38.8090 -86.3260 272° West 433 498 36,000  Level FlightAware ADS-B
Thu 08:02:03 PM 38.8120 -86.4180 272° West 433 498 36,000  Level FlightAware ADS-B
Thu 08:02:50 PM 38.8150 -86.5390 272° West 434 499 36,000  Level FlightAware ADS-B
Thu 08:03:31 PM 38.8180 -86.6410 272° West 434 499 36,000  Level FlightAware ADS-B
Thu 08:04:10 PM 38.8210 -86.7400 272° West 434 499 36,000  Level FlightAware ADS-B
Thu 08:04:56 PM 38.8240 -86.8650 272° West 435 501 36,000  Level FlightAware ADS-B
Thu 08:05:40 PM 38.8270 -86.9760 272° West 434 499 36,000  Level FlightAware ADS-B
Thu 08:06:20 PM 38.8290 -87.0790 271° West 433 498 36,000  Level FlightAware ADS-B
Thu 08:06:56 PM 38.8310 -87.1720 272° West 433 498 36,000  Level FlightAware ADS-B
Thu 08:07:41 PM 38.8340 -87.2880 272° West 433 498 36,000  Level FlightAware ADS-B
Thu 08:08:22 PM 38.8360 -87.3920 271° West 433 498 36,000  Level FlightAware ADS-B
Thu 08:09:02 PM 38.8380 -87.4960 271° West 434 499 36,000  Level FlightAware ADS-B
Thu 08:09:46 PM 38.8410 -87.6090 272° West 438 504 36,000  Level FlightAware ADS-B
Thu 08:10:26 PM 38.8420 -87.7130 271° West 441 507 36,000  Level FlightAware ADS-B
Thu 08:11:02 PM 38.8440 -87.8060 272° West 443 510 36,000  Level FlightAware ADS-B
Thu 08:11:42 PM 38.8460 -87.9110 271° West 445 512 36,000  Level FlightAware ADS-B
Thu 08:12:26 PM 38.8480 -88.0270 271° West 447 514 36,000  Level FlightAware ADS-B
Thu 08:13:06 PM 38.8490 -88.1340 271° West 448 516 36,000  Level FlightAware ADS-B
Thu 08:13:49 PM 38.8510 -88.2470 271° West 449 517 36,000  Level FlightAware ADS-B
Thu 08:14:34 PM 38.8530 -88.3650 271° West 446 513 36,000  Level FlightAware ADS-B
Thu 08:15:14 PM 38.8510 -88.4680 269° West 441 507 36,000  Level FlightAware ADS-B
Thu 08:15:57 PM 38.8480 -88.5810 268° West 433 498 36,000  Level FlightAware ADS-B
Thu 08:16:34 PM 38.8460 -88.6770 268° West 434 499 36,000  Level FlightAware ADS-B
Thu 08:17:12 PM 38.8440 -88.7760 269° West 435 501 36,000  Level FlightAware ADS-B
Thu 08:17:54 PM 38.8420 -88.8820 269° West 437 503 36,000  Level FlightAware ADS-B
Thu 08:18:35 PM 38.8390 -88.9890 268° West 439 505 36,000  Level FlightAware ADS-B
Thu 08:19:11 PM 38.8370 -89.0840 268° West 439 505 36,000  Level FlightAware ADS-B
Thu 08:19:54 PM 38.8350 -89.1960 269° West 439 505 36,000  Level FlightAware ADS-B
Thu 08:20:33 PM 38.8320 -89.2950 268° West 438 504 36,000  Level FlightAware ADS-B
Thu 08:21:15 PM 38.8290 -89.4040 268° West 435 501 36,000  Level FlightAware ADS-B
Thu 08:21:57 PM 38.8260 -89.5120 268° West 435 501 36,000  Level FlightAware ADS-B
Thu 08:22:41 PM 38.8230 -89.6250 268° West 434 499 36,000  Level FlightAware ADS-B
Thu 08:23:25 PM 38.8200 -89.7230 268° West 434 499 36,000  Level FlightAware ADS-B
Thu 08:23:59 PM 38.8170 -89.8220 268° West 433 498 36,000  Level FlightAware ADS-B
Thu 08:24:39 PM 38.8140 -89.9270 268° West 432 497 36,000  Level FlightAware ADS-B
Thu 08:25:23 PM 38.8110 -90.0380 268° West 428 493 36,000  Level FlightAware ADS-B
Thu 08:25:59 PM 38.8080 -90.1300 268° West 424 488 36,000  Level FlightAware ADS-B
Thu 08:26:39 PM 38.8050 -90.2290 268° West 424 488 36,000  Level FlightAware ADS-B
Thu 08:27:23 PM 38.8010 -90.3390 267° West 427 491 36,000  Level FlightAware ADS-B
Thu 08:28:03 PM 38.7970 -90.4430 267° West 427 491 36,000  Level FlightAware ADS-B
Thu 08:28:43 PM 38.7940 -90.5410 268° West 428 493 36,000  Level FlightAware ADS-B
Thu 08:29:27 PM 38.7900 -90.6550 267° West 429 494 36,000  Level FlightAware ADS-B
Thu 08:30:11 PM 38.7850 -90.7620 267° West 431 496 36,000  Level FlightAware ADS-B
Thu 08:30:51 PM 38.7810 -90.8670 267° West 439 505 36,000  Level FlightAware ADS-B
Thu 08:31:27 PM 38.7780 -90.9600 268° West 441 507 36,000  Level FlightAware ADS-B
Thu 08:32:18 PM 38.7730 -91.0730 267° West 441 507 36,000  Level FlightAware ADS-B
Thu 08:32:57 PM 38.7680 -91.1970 267° West 443 510 36,000  Level FlightAware ADS-B
Thu 08:33:51 PM 38.7620 -91.3270 267° West 445 512 36,000  Level FlightAware ADS-B
Thu 08:34:34 PM 38.7570 -91.4500 267° West 439 505 36,000  Level FlightAware ADS-B
Thu 08:35:18 PM 38.7520 -91.5630 267° West 438 504 36,000  Level FlightAware ADS-B
Thu 08:36:01 PM 38.7470 -91.6750 267° West 438 504 36,000  Level FlightAware ADS-B
Thu 08:36:39 PM 38.7420 -91.7590 266° West 438 504 36,000  Level FlightAware ADS-B
Thu 08:37:16 PM 38.7380 -91.8400 266° West 438 504 36,000  Level FlightAware ADS-B
Thu 08:37:52 PM 38.7340 -91.9200 266° West 438 504 36,000  Level FlightAware ADS-B
Thu 08:38:40 PM 38.7280 -92.0250 266° West 438 504 36,000  Level FlightAware ADS-B
Thu 08:39:32 PM 38.7210 -92.2180 267° West 436 502 36,000  Level FlightAware ADS-B
Thu 08:40:14 PM 38.7160 -92.3170 266° West 441 507 36,000  Level FlightAware ADS-B
Thu 08:41:06 PM 38.7090 -92.4490 266° West 451 519 36,000  Level FlightAware ADS-B
Thu 08:41:43 PM 38.7030 -92.5640 266° West 453 521 36,000  Level FlightAware ADS-B
Thu 08:42:41 PM 38.6940 -92.7150 266° West 454 522 36,000  Level FlightAware ADS-B
Thu 08:43:29 PM 38.6870 -92.8490 266° West 454 522 36,000  Level FlightAware ADS-B
Thu 08:44:03 PM 38.6820 -92.9390 266° West 456 525 36,000  Level FlightAware ADS-B
Thu 08:44:45 PM 38.6750 -93.0520 265° West 459 528 36,000  Level FlightAware ADS-B
Thu 08:45:25 PM 38.6690 -93.1590 266° West 461 531 36,000  Level FlightAware ADS-B
Thu 08:46:09 PM 38.6620 -93.2770 266° West 462 532 36,000  Level FlightAware ADS-B
Thu 08:46:44 PM 38.6570 -93.3740 266° West 458 527 36,000  Level FlightAware ADS-B
Thu 08:47:25 PM 38.6500 -93.4830 265° West 456 525 36,000  Level FlightAware ADS-B
Thu 08:48:10 PM 38.6420 -93.6080 265° West 458 527 36,000  Level FlightAware ADS-B
Thu 08:48:50 PM 38.6350 -93.7130 265° West 459 528 36,000  Level FlightAware ADS-B
Thu 08:49:34 PM 38.6280 -93.8350 266° West 459 528 36,000  Level FlightAware ADS-B
Thu 08:50:14 PM 38.6210 -93.9400 265° West 459 528 36,000  Level FlightAware ADS-B
Thu 08:50:58 PM 38.6130 -94.0610 265° West 459 528 36,000  Level FlightAware ADS-B
Thu 08:51:34 PM 38.6060 -94.1590 265° West 459 528 36,000  Level FlightAware ADS-B
Thu 08:52:14 PM 38.5990 -94.2640 265° West 459 528 36,000  Level FlightAware ADS-B
Thu 08:52:54 PM 38.5920 -94.3730 265° West 458 527 36,000  Level FlightAware ADS-B
Thu 08:53:34 PM 38.5840 -94.4790 265° West 457 526 36,000  Level FlightAware ADS-B
Thu 08:54:10 PM 38.5770 -94.5770 265° West 458 527 36,000  Level FlightAware ADS-B
Thu 08:54:52 PM 38.5690 -94.6910 265° West 459 528 36,000  Level FlightAware ADS-B
Thu 08:55:34 PM 38.5610 -94.8050 265° West 460 529 36,000  Level FlightAware ADS-B
Thu 08:56:18 PM 38.5520 -94.9230 264° West 460 529 36,000  Level FlightAware ADS-B
Thu 08:57:00 PM 38.5440 -95.0370 265° West 460 529 36,000  Level FlightAware ADS-B
Thu 08:57:41 PM 38.5350 -95.1480 264° West 459 528 36,000  Level FlightAware ADS-B
Thu 08:58:21 PM 38.5270 -95.2530 264° West 460 529 36,000  Level FlightAware ADS-B
Thu 08:58:57 PM 38.5200 -95.3450 264° West 462 532 36,000  Level FlightAware ADS-B
Thu 08:59:42 PM 38.5100 -95.4740 264° West 469 540 36,000  Level FlightAware ADS-B
Thu 09:00:22 PM 38.5010 -95.5840 264° West 473 544 36,000  Level FlightAware ADS-B
Thu 09:00:58 PM 38.4930 -95.6830 264° West 474 545 36,000  Level FlightAware ADS-B
Thu 09:01:38 PM 38.4840 -95.7980 264° West 473 544 36,000  Level FlightAware ADS-B
Thu 09:02:20 PM 38.4750 -95.9130 264° West 473 544 36,000  Level FlightAware ADS-B
Thu 09:03:04 PM 38.4650 -96.0330 264° West 471 542 36,000  Level FlightAware ADS-B
Thu 09:03:46 PM 38.4550 -96.1500 264° West 469 540 36,000  Level FlightAware ADS-B
Thu 09:04:26 PM 38.4460 -96.2580 264° West 467 537 36,000  Level FlightAware ADS-B
Thu 09:05:10 PM 38.4350 -96.3800 263° West 466 536 36,000  Level FlightAware ADS-B
Thu 09:05:45 PM 38.4270 -96.4740 264° West 467 537 36,000  Level FlightAware ADS-B
Thu 09:06:25 PM 38.4170 -96.5840 263° West 469 540 36,000  Level FlightAware ADS-B
Thu 09:07:11 PM 38.4060 -96.7120 264° West 469 540 36,000  Level FlightAware ADS-B
Thu 09:07:43 PM 38.3980 -96.7980 263° West 469 540 36,000  Level FlightAware ADS-B
Thu 09:08:27 PM 38.3870 -96.9170 263° West 469 540 36,000  Level FlightAware ADS-B
Thu 09:09:07 PM 38.3770 -97.0280 263° West 469 540 36,000  Level FlightAware ADS-B
Thu 09:09:51 PM 38.3660 -97.1510 264° West 469 540 36,000  Level FlightAware ADS-B
Thu 09:10:31 PM 38.3560 -97.2580 263° West 469 540 36,000  Level FlightAware ADS-B
Thu 09:11:07 PM 38.3460 -97.3580 263° West 469 540 36,000  Level FlightAware ADS-B
Thu 09:11:55 PM 38.3340 -97.4880 263° West 469 540 36,000  Level FlightAware ADS-B
Thu 09:12:39 PM 38.3220 -97.6090 263° West 470 541 36,000  Level FlightAware ADS-B
Thu 09:13:19 PM 38.3110 -97.7200 263° West 472 543 36,000  Level FlightAware ADS-B
Thu 09:14:03 PM 38.2990 -97.8430 263° West 473 544 36,000  Level FlightAware ADS-B
Thu 09:14:45 PM 38.2880 -97.9570 263° West 475 547 36,000  Level FlightAware ADS-B
Thu 09:15:25 PM 38.2760 -98.0690 262° West 476 548 36,000  Level FlightAware ADS-B
Thu 09:16:07 PM 38.2650 -98.1830 263° West 476 548 36,000  Level FlightAware ADS-B
Thu 09:16:51 PM 38.2520 -98.3060 262° West 476 548 36,000  Level FlightAware ADS-B
Thu 09:17:31 PM 38.2410 -98.4180 263° West 476 548 36,000  Level FlightAware ADS-B
Thu 09:18:15 PM 38.2280 -98.5380 262° West 474 545 36,000  Level FlightAware ADS-B
Thu 09:18:55 PM 38.2160 -98.6500 262° West 473 544 36,000  Level FlightAware ADS-B
Thu 09:19:32 PM 38.2060 -98.7490 263° West 472 543 36,000  Level FlightAware ADS-B
Thu 09:20:14 PM 38.1930 -98.8660 262° West 472 543 36,000  Level FlightAware ADS-B
Thu 09:20:54 PM 38.1810 -98.9750 262° West 472 543 36,000  Level FlightAware ADS-B
Thu 09:21:30 PM 38.1700 -99.0710 262° West 471 542 36,000  Level FlightAware ADS-B
Thu 09:22:11 PM 38.1580 -99.1830 262° West 471 542 36,000  Level FlightAware ADS-B
Thu 09:22:52 PM 38.1450 -99.2980 262° West 471 542 36,000  Level FlightAware ADS-B
Thu 09:23:44 PM 38.1300 -99.4280 262° West 471 542 36,000  Level FlightAware ADS-B
Thu 09:24:20 PM 38.1190 -99.5120 261° West 471 542 36,000  Level FlightAware ADS-B
Thu 09:25:08 PM 38.1060 -99.6230 262° West 471 542 36,000  Level FlightAware ADS-B
Thu 09:25:44 PM 38.0950 -99.7070 261° West 471 542 36,000  Level FlightAware ADS-B
Thu 09:26:32 PM 38.0810 -99.8180 261° West 471 542 36,000  Level FlightAware ADS-B
Thu 09:27:08 PM 38.0710 -99.9020 261° West 471 542 36,000  Level FlightAware ADS-B
Thu 09:27:57 PM 38.0570 -100.0160 261° West 471 542 36,000  Level FlightAware ADS-B
Thu 09:28:33 PM 38.0460 -100.1000 261° West 471 542 36,000  Level FlightAware ADS-B
Thu 09:29:09 PM 38.0360 -100.1830 261° West 471 542 36,000  Level FlightAware ADS-B
Thu 09:29:57 PM 38.0220 -100.2950 261° West 471 542 36,000  Level FlightAware ADS-B
Thu 09:30:33 PM 38.0110 -100.3780 260° West 471 542 36,000  Level FlightAware ADS-B
Thu 09:31:09 PM 38.0010 -100.4620 261° West 471 542 36,000  Level FlightAware ADS-B
Thu 09:32:09 PM 37.9830 -100.6010 261° West 471 542 36,000  Level FlightAware ADS-B
Thu 09:32:43 PM 37.9740 -100.6800 262° West 471 542 36,000 1,250 Level FlightAware ADS-B
Thu 09:33:45 PM 37.9311 -101.0764 262° West 472 543 38,000 984 Climbing Kansas City Center
Thu 09:34:45 PM 37.9111 -101.2325 261° West 473 544 38,000  Level Kansas City Center
Thu 09:35:46 PM 37.8869 -101.4142 260° West 472 543 38,000  Level Kansas City Center
Thu 09:36:47 PM 37.8664 -101.5700 261° West 471 542 38,000  Level Kansas City Center
Thu 09:37:47 PM 37.8469 -101.7253 261° West 470 541 38,000  Level Kansas City Center
Thu 09:38:48 PM 37.8219 -101.9042 260° West 466 536 38,000  Level Kansas City Center
Thu 09:39:49 PM 37.8011 -102.0583 260° West 465 535 38,000  Level Kansas City Center
Thu 09:40:49 PM 37.7797 -102.2106 260° West 462 532 38,000  Level Kansas City Center
Thu 09:41:50 PM 37.7553 -102.3889 260° West 461 531 38,000  Level Kansas City Center
Thu 09:42:51 PM 37.7353 -102.5389 260° West 457 526 38,000  Level Kansas City Center
Thu 09:43:51 PM 37.7125 -102.6908 259° West 458 527 38,000  Level Kansas City Center
Thu 09:44:52 PM 37.6872 -102.8683 260° West 461 531 38,000  Level Kansas City Center
Thu 09:45:53 PM 37.6644 -103.0200 259° West 460 529 38,000  Level Kansas City Center
Thu 09:47:02 PM 37.6389 -103.2047 260° West 462 532 38,000  Level Denver Center
Thu 09:48:03 PM 37.6169 -103.3572 260° West 462 532 38,000  Level Denver Center
Thu 09:49:04 PM 37.5903 -103.5339 259° West 459 528 38,000  Level Denver Center
Thu 09:50:05 PM 37.5675 -103.6850 259° West 459 528 38,000  Level Denver Center
Thu 09:51:06 PM 37.5444 -103.8372 259° West 461 531 38,000  Level Denver Center
Thu 09:52:07 PM 37.5200 -103.9914 259° West 468 539 38,000  Level Denver Center
Thu 09:53:08 PM 37.4894 -104.1861 259° West 474 545 38,000  Level Denver Center
Thu 09:54:09 PM 37.4664 -104.3386 259° West 467 537 38,000  Level Denver Center
Thu 09:55:10 PM 37.4428 -104.4922 259° West 469 540 38,000  Level Denver Center
Thu 09:56:11 PM 37.4139 -104.6706 259° West 466 536 38,000  Level Denver Center
Thu 09:57:12 PM 37.3894 -104.8231 259° West 465 535 38,000  Level Denver Center
Thu 09:58:13 PM 37.3650 -104.9739 259° West 463 533 38,000  Level Denver Center
Thu 09:59:14 PM 37.3361 -105.1497 258° West 460 529 38,000  Level Denver Center
Thu 10:00:15 PM 37.3092 -105.3125 258° West 463 533 38,000  Level Denver Center
Thu 10:01:16 PM 37.2839 -105.4639 258° West 464 534 38,000  Level Denver Center
Thu 10:02:17 PM 37.2558 -105.6289 258° West 462 532 38,000  Level Denver Center
Thu 10:08:26 PM 37.0900 -106.5840 258° West 450 518 38,000  Level FlightAware ADS-B
Thu 10:09:11 PM 37.0750 -106.6960 261° West 446 513 38,000  Level FlightAware ADS-B
Thu 10:09:58 PM 37.0710 -106.8110 268° West 445 512 38,000  Level FlightAware ADS-B
Thu 10:10:36 PM 37.0700 -106.9150 269° West 446 513 38,000  Level FlightAware ADS-B
Thu 10:11:21 PM 37.0700 -107.0220 270° West 446 513 38,000  Level FlightAware ADS-B
Thu 10:11:53 PM 37.0700 -107.1150 270° West 448 516 38,000  Level FlightAware ADS-B
Thu 10:12:38 PM 37.0700 -107.2310 270° West 447 514 38,000  Level FlightAware ADS-B
Thu 10:13:18 PM 37.0710 -107.3330 271° West 445 512 38,000  Level FlightAware ADS-B
Thu 10:13:53 PM 37.0720 -107.4190 271° West 444 511 38,000  Level FlightAware ADS-B
Thu 10:14:34 PM 37.0730 -107.5230 271° West 444 511 38,000  Level FlightAware ADS-B
Thu 10:15:20 PM 37.0730 -107.6460 270° West 446 513 38,000  Level FlightAware ADS-B
Thu 10:15:56 PM 37.0640 -107.7390 263° West 451 519 38,000  Level FlightAware ADS-B
Thu 10:16:42 PM 37.0460 -107.8540 259° West 456 525 38,000  Level FlightAware ADS-B
Thu 10:17:27 PM 37.0190 -107.9700 254° West 458 527 38,000  Level FlightAware ADS-B
Thu 10:18:04 PM 36.9970 -108.0660 254° West 457 526 38,000  Level FlightAware ADS-B
Thu 10:18:39 PM 36.9780 -108.1520 255° West 458 527 38,000  Level FlightAware ADS-B
Thu 10:19:21 PM 36.9530 -108.2620 254° West 459 528 38,000  Level FlightAware ADS-B
Thu 10:20:07 PM 36.9270 -108.3790 254° West 458 527 38,000  Level FlightAware ADS-B
Thu 10:20:47 PM 36.9040 -108.4820 254° West 457 526 38,000  Level FlightAware ADS-B
Thu 10:21:27 PM 36.8810 -108.5810 254° West 456 525 38,000  Level FlightAware ADS-B
Thu 10:22:13 PM 36.8550 -108.6940 254° West 454 522 38,000  Level FlightAware ADS-B
Thu 10:23:10 PM 36.8240 -108.8300 254° West 455 524 38,000  Level FlightAware ADS-B
Thu 10:23:48 PM 36.8050 -108.9110 254° West 455 524 38,000  Level FlightAware ADS-B
Thu 10:24:24 PM 36.7880 -108.9890 255° West 455 524 38,000  Level FlightAware ADS-B
Thu 10:25:12 PM 36.7640 -109.0920 254° West 455 524 38,000  Level FlightAware ADS-B
Thu 10:25:48 PM 36.7460 -109.1690 254° West 455 524 38,000  Level FlightAware ADS-B
Thu 10:26:34 PM 36.7230 -109.2680 254° West 455 524 38,000  Level FlightAware ADS-B
Thu 10:27:22 PM 36.7000 -109.3710 254° West 455 524 38,000  Level FlightAware ADS-B
Thu 10:27:58 PM 36.6820 -109.4480 254° West 455 524 38,000  Level FlightAware ADS-B
Thu 10:28:35 PM 36.6640 -109.5270 254° West 455 524 38,000  Level FlightAware ADS-B
Thu 10:29:21 PM 36.6410 -109.6260 254° West 455 524 38,000  Level FlightAware ADS-B
Thu 10:29:57 PM 36.6230 -109.7030 254° West 455 524 38,000  Level FlightAware ADS-B
Thu 10:30:33 PM 36.6050 -109.7800 254° West 455 524 38,000  Level FlightAware ADS-B
Thu 10:31:10 PM 36.5870 -109.8590 254° West 455 524 38,000 -674 Level FlightAware ADS-B
Thu 10:32:02 PM 36.5080 -110.1620 252° West 454 522 37,000 -1,063 Descending FlightAware ADS-B
Thu 10:32:29 PM 36.4920 -110.2270 253° West 457 526 36,600 -971 Descending FlightAware ADS-B
Thu 10:33:10 PM 36.4650 -110.3340 253° West 457 526 35,900 -963 Descending FlightAware ADS-B
Thu 10:33:50 PM 36.4410 -110.4330 253° West 459 528 35,300 -900 Descending FlightAware ADS-B
Thu 10:34:30 PM 36.4170 -110.5320 253° West 455 524 34,700 -975 Descending FlightAware ADS-B
Thu 10:35:10 PM 36.3970 -110.6350 256° West 450 518 34,000 -1,275 Descending FlightAware ADS-B
Thu 10:35:50 PM 36.3920 -110.7360 267° West 449 517 33,000 -1,575 Descending FlightAware ADS-B
Thu 10:36:30 PM 36.3880 -110.8390 267° West 450 518 31,900 -1,769 Descending FlightAware ADS-B
Thu 10:37:08 PM 36.3860 -110.9360 269° West 445 512 30,700 -1,390 Descending FlightAware ADS-B
Thu 10:37:52 PM 36.3820 -111.0480 267° West 444 511 30,000 -500 Descending FlightAware ADS-B
Thu 10:38:32 PM 36.3790 -111.1500 268° West 444 511 30,000  Level FlightAware ADS-B
Thu 10:39:14 PM 36.3750 -111.2570 267° West 445 512 30,000  Level FlightAware ADS-B
Thu 10:39:54 PM 36.3710 -111.3600 267° West 447 514 30,000  Level FlightAware ADS-B
Thu 10:40:38 PM 36.3680 -111.4720 268° West 444 511 30,000  Level FlightAware ADS-B
Thu 10:41:18 PM 36.3640 -111.5730 267° West 441 507 30,000  Level FlightAware ADS-B
Thu 10:41:56 PM 36.3610 -111.6670 268° West 441 507 30,000  Level FlightAware ADS-B
Thu 10:42:34 PM 36.3570 -111.7650 267° West 441 507 30,000 -500 Level FlightAware ADS-B
Thu 10:43:20 PM 36.3530 -111.8810 268° West 447 514 29,300 -951 Descending FlightAware ADS-B
Thu 10:43:56 PM 36.3510 -111.9750 269° West 442 509 28,700 -1,026 Descending FlightAware ADS-B
Thu 10:44:36 PM 36.3480 -112.0720 268° West 430 495 28,000 -506 Descending FlightAware ADS-B
Thu 10:45:19 PM 36.3440 -112.1750 267° West 428 493 28,000  Level FlightAware ADS-B
Thu 10:46:00 PM 36.3310 -112.2770 261° West 429 494 28,000  Level FlightAware ADS-B
Thu 10:46:40 PM 36.3190 -112.3760 261° West 428 493 28,000  Level FlightAware ADS-B
Thu 10:47:24 PM 36.3010 -112.4800 258° West 431 496 28,000  Level FlightAware ADS-B
Thu 10:48:04 PM 36.2710 -112.5730 248° West 436 502 28,000  Level FlightAware ADS-B
Thu 10:48:50 PM 36.2270 -112.6760 242° Southwest 447 514 28,000  Level FlightAware ADS-B
Thu 10:49:30 PM 36.1870 -112.7670 241° Southwest 461 531 28,000  Level FlightAware ADS-B
Thu 10:50:14 PM 36.1430 -112.8680 242° Southwest 457 526 28,000  Level FlightAware ADS-B
Thu 10:50:54 PM 36.1030 -112.9610 242° Southwest 449 517 28,000  Level FlightAware ADS-B
Thu 10:51:34 PM 36.0650 -113.0490 242° Southwest 448 516 28,000  Level FlightAware ADS-B
Thu 10:52:18 PM 36.0210 -113.1500 242° Southwest 447 514 28,000  Level FlightAware ADS-B
Thu 10:53:02 PM 35.9780 -113.2490 242° Southwest 448 516 28,000 -150 Level FlightAware ADS-B
Thu 10:53:38 PM 35.9440 -113.3270 242° Southwest 434 499 27,800 -1,098 Descending FlightAware ADS-B
Thu 10:54:24 PM 35.9000 -113.4260 241° Southwest 416 479 26,500 -1,884 Descending FlightAware ADS-B
Thu 10:55:04 PM 35.8640 -113.5090 242° Southwest 409 471 25,100 -2,071 Descending FlightAware ADS-B
Thu 10:55:48 PM 35.8250 -113.5980 242° Southwest 401 461 23,600 -1,929 Descending FlightAware ADS-B
Thu 10:56:28 PM 35.7920 -113.6730 242° Southwest 394 453 22,400 -1,884 Descending FlightAware ADS-B
Thu 10:57:14 PM 35.7520 -113.7630 241° Southwest 386 444 20,900 -2,023 Descending FlightAware ADS-B
Thu 10:57:54 PM 35.7170 -113.8430 242° Southwest 381 438 19,500 -1,952 Descending FlightAware ADS-B
Thu 10:58:37 PM 35.6860 -113.9220 244° Southwest 373 429 18,200 -1,835 Descending FlightAware ADS-B
Thu 10:59:19 PM 35.6910 -114.0130 274° West 359 413 16,900 -1,756 Descending FlightAware ADS-B
Thu 10:59:59 PM 35.7020 -114.0930 280° West 349 402 15,800 -1,704 Descending FlightAware ADS-B
Thu 11:00:40 PM 35.7130 -114.1730 280° West 341 392 14,600 -1,735 Descending FlightAware ADS-B
Thu 11:01:22 PM 35.7240 -114.2520 280° West 335 386 13,400 -1,465 Descending FlightAware ADS-B
Thu 11:02:06 PM 35.7350 -114.3320 280° West 317 365 12,500 -986 Descending FlightAware ADS-B
Thu 11:02:35 PM 35.7500 -114.3790 291° West 306 352 12,200 -870 Descending FlightAware ADS-B
Thu 11:03:15 PM 35.7830 -114.4340 306° West 289 333 11,500 -1,286 Descending FlightAware ADS-B
Thu 11:03:59 PM 35.8160 -114.4930 305° West 287 330 10,400 -1,457 Descending FlightAware ADS-B
Thu 11:04:25 PM 35.8360 -114.5280 305° West 287 330 9,800 -1,385 Descending FlightAware ADS-B
Thu 11:04:38 PM 35.8460 -114.5450 306° West 286 329 9,500 -1,395 Descending FlightAware ADS-B
Thu 11:05:08 PM 35.8690 -114.5850 305° West 286 329 8,800 -1,435 Descending FlightAware ADS-B
Thu 11:05:24 PM 35.8810 -114.6070 304° West 285 328 8,400 -1,500 Descending FlightAware ADS-B
Thu 11:05:52 PM 35.9020 -114.6440 305° West 283 326 7,700 -1,200 Descending FlightAware ADS-B
Thu 11:06:19 PM 35.9220 -114.6790 305° West 275 316 7,300 -511 Descending FlightAware ADS-B
Thu 11:06:39 PM 35.9360 -114.7040 305° West 260 299 7,300  Level FlightAware ADS-B
Thu 11:07:07 PM 35.9550 -114.7370 305° West 258 297 7,300 -150 Level FlightAware ADS-B
Thu 11:07:19 PM 35.9640 -114.7520 307° West 252 290 7,200 -900 Descending FlightAware ADS-B
Thu 11:07:47 PM 35.9820 -114.7850 304° West 245 282 6,700 -1,179 Descending FlightAware ADS-B
Thu 11:08:15 PM 36.0000 -114.8160 306° West 247 284 6,100 -1,200 Descending FlightAware ADS-B
Thu 11:08:32 PM 36.0120 -114.8370 305° West 248 285 5,800 -1,200 Descending FlightAware ADS-B
Thu 11:09:00 PM 36.0300 -114.8700 304° West 250 288 5,200 -643 Descending FlightAware ADS-B
Thu 11:09:28 PM 36.0480 -114.9010 306° West 242 278 5,200  Level FlightAware ADS-B
Thu 11:09:56 PM 36.0660 -114.9330 305° West 242 278 5,200  Level FlightAware ADS-B
Thu 11:10:17 PM 36.0750 -114.9590 293° West 220 253 5,200 -632 Level FlightAware ADS-B
Thu 11:10:53 PM 36.0730 -115.0020 267° West 205 236 4,600 -1,091 Descending FlightAware ADS-B
Thu 11:11:01 PM 36.0740 -115.0120 277° West 202 232 4,400 -1,680 Descending FlightAware ADS-B
Thu 11:11:18 PM 36.0750 -115.0260 275° West 202 232 3,900 -1,263 Descending FlightAware ADS-B
Thu 11:11:39 PM 36.0740 -115.0530 267° West 185 213 3,600 -840 Descending FlightAware ADS-B
Thu 11:12:08 PM 36.0740 -115.0820 270° West 157 181 3,200 -904 Descending FlightAware ADS-B
Thu 11:12:52 PM 36.0740 -115.1200 270° West 154 177 2,500 -964 Descending FlightAware ADS-B
Thu 11:13:04 PM 36.0740 -115.1310 270° West 157 181 2,300 -1,000 Descending FlightAware ADS-B
Thu 11:13:49 PM 36.0740 -115.1560 270° West 96 110 -3,067 Descending FlightAware ADS-B
Thu 11:15:07 PM 36.0750 -115.1480 81° East 29 33  Level FlightAware ADS-B
Thu 11:15:33 PM 36.0750 -115.1440 90° East 29 33  Level FlightAware ADS-B
Thu 11:20:00 PM 36.0667 -115.1500 270° West  Level FlightAware Approximate
Thu 11:21:00 PM 36.0801 -115.1523 270° West  Level Estimated

Login

Don't have an account? Register now (free) for customized features, flight alerts, and more!